Details From YBBN - Brisbane Intl
To YLRE - Longreach
Flight Number -
Tags Decoded
Created
Modified
Stats Distance 543 nm / 1,006 km
Max Altitude 0 ft / 0 m
Waypoints 5
Social Downloads 2
Likes 0
Share VATSIM

Download

Looking for another format? Having issues loading an existing format? Contact us
Advertisement - Login to hide

Notes

Decoded

Route

YBBN IBUNA TAM OMUBI YLRE

ID Type Via Altitude Latitude Longitude Leg Dist Tot Dist Heading (true) Name
O YBBN APT - 0 ft / 0 m -27.40786˚ 153.10379˚ - 0 nm - -
IBUNA FIX - 0 ft / 0 m -27.05778˚ 152.47556˚ 39 nm 39 nm 302° / 302° -
TAM VOR - 0 ft / 0 m -25.80278˚ 149.89639˚ 157 nm 197 nm 298° / 299° TAROOM VOR
OMUBI FIX - 0 ft / 0 m -23.63750˚ 146.06833˚ 245 nm 443 nm 301° / 303° -
O YLRE APT - 0 ft / 0 m -23.43765˚ 144.27200˚ 99 nm 543 nm 277° / 277° -

Altitude Profile

Advertisement - Login to hide

Weather


0- 5 10 15 20 25 30 35+ Temperature / ° C

Clouds and Precipitation
Forecast for 2017-12-15 06:00 UTC. Updated 2 hours ago

Ground ~20,000 ft ~40,000 ft Winds

YBBN

Details ICAO YBBN (BNE)
Name Brisbane Intl
Region Australia
Timezone Australia/Brisbane (UTC+10.0)
Stats Elevation 12 ft / 4 m (AMSL)
Location -27.375714° 153.127710°
Runways 2
Magnetic Variation 10.985° E

METAR

YBBN 150630Z 05012KT 9999 FEW030 27/20 Q1011 NOSIG

Decode

TAF

TAF YBBN 150522Z 1506/1612 04010KT 9999 FEW035 FM151800 20005KT 9999 SCT025 FM152200 06010KT 9999 FEW035

Decode

Departure Runways

ID Width Length Bearing (true) Bearing (mag) Surface Threshold Offset Overrun Length
01 148 ft / 45 m 11,805 ft / 3,598 m 26.93° 15.95° Asphalt 197 ft / 60 m 0 ft / 0 m
14 98 ft / 30 m 5,787 ft / 1,764 m 145.66° 134.68° Asphalt 197 ft / 60 m 0 ft / 0 m
19 148 ft / 45 m 11,805 ft / 3,598 m 206.92° 195.94° Asphalt 0 ft / 0 m 0 ft / 0 m
32 98 ft / 30 m 5,787 ft / 1,764 m 325.66° 314.68° Asphalt 197 ft / 60 m 0 ft / 0 m

YLRE

Details ICAO YLRE (LRE)
Name Longreach
Region Australia
Timezone Australia/Brisbane (UTC+10.0)
Stats Elevation 627 ft / 191 m (AMSL)
Location -23.434892° 144.276806°
Runways 2
Magnetic Variation 7.501° E

METAR

YLRE 150600Z AUTO 10011KT 030V110 9999 // NCD 39/07 Q1005

Decode

TAF

Not found

Destination Runways

ID Width Length Bearing (true) Bearing (mag) Surface Threshold Offset Overrun Length
04 82 ft / 25 m 6,351 ft / 1,936 m 46.40° 38.90° Asphalt 0 ft / 0 m 200 ft / 61 m
09 151 ft / 46 m 2,490 ft / 759 m 93.15° 85.65° Dirt 0 ft / 0 m 0 ft / 0 m
22 82 ft / 25 m 6,351 ft / 1,936 m 226.40° 218.90° Asphalt 0 ft / 0 m 210 ft / 64 m
27 151 ft / 46 m 2,490 ft / 759 m 273.14° 265.64° Dirt 0 ft / 0 m 0 ft / 0 m

Popular Alternatives